Time;durP1;ratioP1;P1;durP2;ratioP2;P2;SDS_P1;SDS_P2;PMS_P1;PMS_P2;Temp;Humidity;BMP_temperature;BMP_pressure;BME280_temperature;BME280_humidity;BME280_pressure;Samples;Min_cycle;Max_cycle;Signal;HPM_P1;HPM_P2
2022/04/09 00:00:10;;;;;;;;;3.00;3.00;;;;;3.43;86.84;100233.66;5013169;28;45494;-75
2022/04/09 00:02:36;;;;;;;;;1.50;1.50;;;;;3.44;86.41;100231.91;5013664;28;45357;-76
2022/04/09 00:05:02;;;;;;;;;7.00;3.00;;;;;3.48;85.93;100254.56;5012939;28;45562;-76
2022/04/09 00:07:27;;;;;;;;;0.00;0.00;;;;;3.45;86.51;100251.94;5015390;28;45797;-75
2022/04/09 00:09:52;;;;;;;;;2.00;2.00;;;;;3.43;86.48;100228.44;5016649;28;46361;-75
2022/04/09 00:12:18;;;;;;;;;4.00;3.00;;;;;3.43;86.59;100235.38;5016296;28;45568;-76
2022/04/09 00:14:43;;;;;;;;;3.25;3.25;;;;;3.47;86.35;100251.06;5016380;28;45503;-75
2022/04/09 00:17:09;;;;;;;;;2.50;2.50;;;;;3.44;86.33;100258.03;4998527;28;45646;-76
2022/04/09 00:19:36;;;;;;;;;3.00;3.00;;;;;3.51;86.24;100267.66;5016233;28;45358;-75
2022/04/09 00:22:02;;;;;;;;;2.00;2.00;;;;;3.50;86.27;100273.75;4997665;28;45496;-76
2022/04/09 00:24:27;;;;;;;;;0.75;0.75;;;;;3.47;86.28;100268.50;5016843;28;45357;-76
2022/04/09 00:26:53;;;;;;;;;5.00;3.50;;;;;3.51;85.83;100268.50;5017468;28;45394;-75
2022/04/09 00:29:18;;;;;;;;;3.75;3.75;;;;;3.55;86.61;100278.13;5016899;28;45421;-75
2022/04/09 00:31:44;;;;;;;;;2.00;2.00;;;;;3.53;85.93;100273.75;5031746;28;45518;-75
2022/04/09 00:34:09;;;;;;;;;1.50;1.50;;;;;3.55;86.35;100279.84;5016279;28;45610;-75
2022/04/09 00:36:34;;;;;;;;;3.00;3.00;;;;;3.54;86.24;100268.53;5031734;28;45659;-75
2022/04/09 00:39:00;;;;;;;;;1.50;1.50;;;;;3.53;86.54;100263.28;5015549;28;46637;-75
2022/04/09 00:41:25;;;;;;;;;1.00;1.00;;;;;3.58;85.84;100264.19;5015585;28;45472;-76
2022/04/09 00:43:51;;;;;;;;;2.75;1.00;;;;;3.59;85.98;100260.69;5016574;28;45721;-74
2022/04/09 00:46:16;;;;;;;;;4.00;1.50;;;;;3.56;86.00;100258.94;5016263;28;45595;-76
2022/04/09 00:48:42;;;;;;;;;0.50;0.50;;;;;3.62;85.79;100270.31;5015529;28;46069;-75
2022/04/09 00:51:08;;;;;;;;;3.00;1.00;;;;;3.62;85.21;100276.41;5016069;28;45462;-75
2022/04/09 00:53:36;;;;;;;;;3.00;1.00;;;;;3.66;85.57;100283.38;5016074;28;45366;-77
2022/04/09 00:56:20;;;;;;;;;4.00;3.00;;;;;3.70;85.64;100290.34;5017161;28;45491;-75
2022/04/09 00:58:55;;;;;;;;;0.75;0.75;;;;;3.69;85.88;100278.16;5018344;28;46379;-74
2022/04/09 01:01:22;;;;;;;;;4.00;3.00;;;;;3.72;85.85;100278.19;5016511;28;45442;-76
2022/04/09 01:03:51;;;;;;;;;3.00;3.00;;;;;3.74;85.13;100281.66;5016534;28;45384;-75
2022/04/09 01:06:17;;;;;;;;;1.00;1.00;;;;;3.74;84.17;100286.03;5031084;28;45783;-75
2022/04/09 01:08:42;;;;;;;;;0.75;0.00;;;;;3.79;83.69;100286.91;5014664;28;45962;-76
2022/04/09 01:11:08;;;;;;;;;3.00;1.00;;;;;3.80;83.78;100279.94;5016042;28;45438;-75
2022/04/09 01:13:36;;;;;;;;;0.00;0.00;;;;;3.85;83.43;100288.69;5016527;28;45479;-76
2022/04/09 01:16:03;;;;;;;;;0.00;0.00;;;;;3.88;82.70;100293.91;5015899;28;45386;-75
2022/04/09 01:18:30;;;;;;;;;0.75;0.75;;;;;3.89;82.72;100290.44;5014660;28;45956;-75
2022/04/09 01:21:03;;;;;;;;;1.00;1.00;;;;;3.90;82.45;100295.66;5031924;28;45501;-75
2022/04/09 01:23:30;;;;;;;;;0.50;0.50;;;;;3.87;81.62;100294.78;5016049;28;45518;-79
2022/04/09 01:25:59;;;;;;;;;1.50;0.25;;;;;3.86;80.51;100295.66;5031624;28;45470;-79
2022/04/09 01:28:25;;;;;;;;;0.00;0.00;;;;;3.98;80.74;100310.50;5003042;28;45454;-75
2022/04/09 01:30:51;;;;;;;;;0.00;0.00;;;;;3.99;79.87;100310.50;5017624;28;45572;-75
2022/04/09 01:33:18;;;;;;;;;0.00;0.00;;;;;3.99;81.02;100315.72;5020188;28;45409;-79
2022/04/09 01:35:45;;;;;;;;;0.00;0.00;;;;;3.97;80.31;100317.47;5015984;28;45586;-75
2022/04/09 01:38:11;;;;;;;;;1.00;0.00;;;;;4.06;80.21;100329.72;4996693;28;47072;-76
2022/04/09 01:40:37;;;;;;;;;0.00;0.00;;;;;4.07;80.22;100334.94;5014628;28;45414;-75
2022/04/09 01:43:02;;;;;;;;;0.50;0.00;;;;;4.09;80.95;100341.03;5014951;28;45511;-76
2022/04/09 01:45:28;;;;;;;;;0.00;0.00;;;;;4.13;81.36;100347.19;5015382;28;45587;-75
2022/04/09 01:47:54;;;;;;;;;0.00;0.00;;;;;4.12;80.87;100360.25;5015188;28;45555;-75
2022/04/09 01:50:21;;;;;;;;;0.00;0.00;;;;;4.07;81.75;100353.25;5015274;28;45467;-76
2022/04/09 01:52:47;;;;;;;;;0.50;0.00;;;;;4.08;82.04;100356.72;5014474;28;45477;-75
2022/04/09 01:55:12;;;;;;;;;0.50;0.50;;;;;4.07;81.93;100348.03;4997707;28;45409;-75
2022/04/09 01:57:38;;;;;;;;;0.00;0.00;;;;;4.02;81.98;100352.34;5016563;28;46214;-74
2022/04/09 02:00:10;;;;;;;;;0.00;0.00;;;;;4.05;82.54;100355.00;5016819;28;45425;-75
2022/04/09 02:02:35;;;;;;;;;3.50;0.00;;;;;4.03;82.60;100359.34;5015744;28;45427;-75
2022/04/09 02:05:01;;;;;;;;;0.00;0.00;;;;;4.05;82.20;100368.09;4997121;28;45539;-74
2022/04/09 02:07:27;;;;;;;;;1.00;1.00;;;;;4.04;82.31;100366.31;5014273;28;45351;-75
2022/04/09 02:09:53;;;;;;;;;1.00;1.00;;;;;4.05;82.62;100370.69;5015223;28;45428;-75
2022/04/09 02:12:19;;;;;;;;;0.00;0.00;;;;;4.07;83.08;100371.56;5014958;28;45428;-74
2022/04/09 02:14:44;;;;;;;;;9.50;9.00;;;;;4.09;82.22;100372.44;5014944;28;45357;-76
2022/04/09 02:17:10;;;;;;;;;3.75;3.75;;;;;4.09;82.95;100361.09;5014739;28;45458;-74
2022/04/09 02:19:35;;;;;;;;;0.00;0.00;;;;;4.09;82.73;100363.72;5014366;28;45380;-75
2022/04/09 02:22:01;;;;;;;;;1.50;1.50;;;;;4.11;82.67;100369.81;5014235;28;45592;-75
2022/04/09 02:24:26;;;;;;;;;3.00;3.00;;;;;4.09;83.04;100368.94;5014309;28;45431;-75
2022/04/09 02:26:51;;;;;;;;;3.00;3.00;;;;;4.09;83.12;100367.19;5013959;28;45999;-76
2022/04/09 02:29:17;;;;;;;;;0.50;0.50;;;;;4.07;83.50;100363.72;5013567;28;45518;-73
2022/04/09 02:31:42;;;;;;;;;1.00;1.00;;;;;4.06;83.13;100363.72;5016394;28;45399;-74
2022/04/09 02:34:08;;;;;;;;;3.25;1.50;;;;;4.10;83.55;100373.31;4998902;28;45452;-75
2022/04/09 02:36:35;;;;;;;;;1.50;1.50;;;;;4.13;82.87;100390.75;5013914;28;45913;-74
2022/04/09 02:39:00;;;;;;;;;1.00;1.00;;;;;4.10;82.78;100389.03;5013693;28;45491;-76
2022/04/09 02:41:28;;;;;;;;;3.00;3.00;;;;;4.07;82.73;100395.09;5013512;28;45452;-76
2022/04/09 02:43:53;;;;;;;;;3.25;3.25;;;;;4.04;82.93;100389.88;4996348;28;45381;-76
2022/04/09 02:46:19;;;;;;;;;1.00;1.00;;;;;4.06;82.98;100395.97;5013813;28;46307;-75
2022/04/09 02:48:44;;;;;;;;;1.00;1.00;;;;;4.07;83.66;100394.25;5014005;28;45614;-76
2022/04/09 02:51:12;;;;;;;;;4.00;3.00;;;;;4.09;83.30;100393.38;5014136;28;45451;-75
2022/04/09 02:53:37;;;;;;;;;3.00;3.00;;;;;4.07;84.09;100389.00;5013983;28;45522;-77
2022/04/09 02:56:03;;;;;;;;;3.00;3.00;;;;;4.07;84.42;100391.63;5012976;28;45419;-76
2022/04/09 02:58:28;;;;;;;;;3.00;3.00;;;;;4.09;84.29;100403.81;5013778;28;45411;-76
2022/04/09 03:00:53;;;;;;;;;2.00;2.00;;;;;4.09;84.41;100402.97;5032547;28;45627;-76
2022/04/09 03:03:19;;;;;;;;;4.25;4.00;;;;;4.05;84.57;100395.97;5014881;28;45334;-75
2022/04/09 03:05:44;;;;;;;;;3.25;3.25;;;;;4.03;84.58;100403.81;5013745;28;46148;-75
2022/04/09 03:08:09;;;;;;;;;5.25;3.00;;;;;4.04;84.64;100421.25;5013225;28;45403;-75
2022/04/09 03:10:35;;;;;;;;;2.50;2.50;;;;;4.05;85.46;100433.47;4995512;28;45413;-76
2022/04/09 03:13:00;;;;;;;;;3.75;3.00;;;;;4.01;84.66;100436.03;5014088;28;45338;-74
2022/04/09 03:15:26;;;;;;;;;8.50;3.00;;;;;4.01;85.70;100439.56;5015938;28;45985;-80
2022/04/09 03:17:51;;;;;;;;;1.00;1.00;;;;;3.98;85.23;100442.16;5014427;28;45424;-79
2022/04/09 03:20:17;;;;;;;;;0.00;0.00;;;;;4.01;86.33;100443.88;5016206;28;45355;-79
2022/04/09 03:22:47;;;;;;;;;1.00;1.00;;;;;4.00;84.85;100444.78;5015465;28;45369;-81
2022/04/09 03:25:13;;;;;;;;;3.00;1.00;;;;;3.99;85.33;100435.16;5014271;28;45489;-80
2022/04/09 03:27:38;;;;;;;;;1.00;1.00;;;;;3.99;85.15;100438.66;5013587;28;45783;-81
2022/04/09 03:30:05;;;;;;;;;3.00;0.50;;;;;3.90;84.56;100418.59;5022040;28;45438;-80
2022/04/09 03:32:30;;;;;;;;;1.00;1.00;;;;;3.98;84.23;100428.19;5021156;28;45282;-80
2022/04/09 03:34:57;;;;;;;;;3.00;2.50;;;;;3.96;84.38;100428.19;5015988;28;45500;-79
2022/04/09 03:37:22;;;;;;;;;3.00;1.00;;;;;3.97;83.35;100440.41;5012998;28;45443;-80
2022/04/09 03:39:49;;;;;;;;;0.75;0.75;;;;;3.95;84.22;100450.00;5016444;28;45409;-79
2022/04/09 03:42:15;;;;;;;;;1.50;1.50;;;;;3.98;84.54;100459.56;5016334;28;45554;-79
2022/04/09 03:44:40;;;;;;;;;0.75;0.75;;;;;3.96;84.59;100459.56;5017994;28;45565;-80
2022/04/09 03:47:05;;;;;;;;;1.00;1.00;;;;;3.97;85.08;100466.56;5017736;28;45507;-76
2022/04/09 03:49:32;;;;;;;;;1.00;1.00;;;;;3.97;84.52;100466.56;5016825;28;45548;-75
2022/04/09 03:51:57;;;;;;;;;3.00;3.00;;;;;3.95;84.74;100456.94;5015620;28;45373;-75
2022/04/09 03:54:23;;;;;;;;;4.00;3.00;;;;;3.95;83.41;100463.06;5016555;28;45582;-76
2022/04/09 03:56:49;;;;;;;;;1.00;1.00;;;;;3.89;84.26;100463.91;5017006;28;45388;-76
2022/04/09 03:59:15;;;;;;;;;2.00;1.50;;;;;3.89;83.81;100466.50;4999464;28;45454;-80
2022/04/09 04:01:43;;;;;;;;;3.00;3.00;;;;;3.87;82.18;100469.97;5017621;28;45340;-79
2022/04/09 04:04:10;;;;;;;;;0.75;0.75;;;;;3.83;82.14;100463.00;5021040;28;45424;-78
2022/04/09 04:06:35;;;;;;;;;0.00;0.00;;;;;3.82;82.26;100466.47;5024870;28;45471;-80
2022/04/09 04:09:01;;;;;;;;;1.00;0.00;;;;;3.81;81.92;100464.72;5018800;28;45441;-79
2022/04/09 04:11:27;;;;;;;;;4.00;1.00;;;;;3.81;82.30;100464.72;5017639;28;45515;-79
2022/04/09 04:13:52;;;;;;;;;3.00;1.00;;;;;3.79;82.33;100471.69;5017067;28;46139;-80
2022/04/09 04:16:17;;;;;;;;;0.50;0.25;;;;;3.81;83.32;100467.31;5017538;28;45351;-80
2022/04/09 04:18:43;;;;;;;;;1.25;0.50;;;;;3.74;83.08;100469.91;4999574;28;45454;-79
2022/04/09 04:21:09;;;;;;;;;1.00;1.00;;;;;3.78;83.73;100467.31;5016756;28;45515;-79
2022/04/09 04:23:35;;;;;;;;;3.00;0.00;;;;;3.75;82.34;100465.56;4998311;28;46758;-80
2022/04/09 04:26:00;;;;;;;;;1.00;1.00;;;;;3.73;82.58;100468.19;5016565;28;45488;-79
2022/04/09 04:28:26;;;;;;;;;1.50;1.00;;;;;3.70;82.52;100462.91;5032312;28;45443;-78
2022/04/09 04:30:51;;;;;;;;;0.75;0.75;;;;;3.67;81.64;100460.25;5018039;28;45351;-79
2022/04/09 04:33:16;;;;;;;;;0.75;0.75;;;;;3.71;83.86;100475.13;5017846;28;45551;-78
2022/04/09 04:35:42;;;;;;;;;0.25;0.25;;;;;3.74;83.02;100474.28;5023869;28;45447;-80
2022/04/09 04:38:07;;;;;;;;;3.50;1.00;;;;;3.74;82.38;100469.91;5016799;28;45511;-81
2022/04/09 04:40:33;;;;;;;;;2.50;1.00;;;;;3.72;82.14;100469.03;5016381;28;45405;-80
2022/04/09 04:42:58;;;;;;;;;1.00;0.00;;;;;3.71;83.11;100459.44;5016622;28;47443;-81
2022/04/09 04:45:23;;;;;;;;;1.00;1.00;;;;;3.74;82.60;100469.91;5016797;28;45318;-79
2022/04/09 04:47:49;;;;;;;;;2.00;2.00;;;;;3.77;83.10;100468.19;5016362;28;45391;-79
2022/04/09 04:50:16;;;;;;;;;1.00;1.00;;;;;3.77;82.98;100474.28;5016741;28;45450;-80
2022/04/09 04:52:42;;;;;;;;;1.00;1.00;;;;;3.81;82.78;100477.78;5015434;28;46263;-81
2022/04/09 04:55:09;;;;;;;;;1.00;1.00;;;;;3.79;82.28;100483.00;5016629;28;45476;-80
2022/04/09 04:57:45;;;;;;;;;1.50;1.50;;;;;3.81;83.28;100483.91;4998325;28;45409;-76
2022/04/09 05:00:12;;;;;;;;;2.50;2.50;;;;;3.77;82.60;100482.13;5015651;28;45432;-77
2022/04/09 05:02:38;;;;;;;;;6.25;6.25;;;;;3.78;82.47;100491.72;5015517;28;45415;-76
2022/04/09 05:05:04;;;;;;;;;2.75;1.50;;;;;3.78;82.42;100491.72;5017527;28;45404;-75
2022/04/09 05:07:40;;;;;;;;;3.50;3.50;;;;;3.78;82.53;100486.50;5015900;28;45618;-75
2022/04/09 05:10:07;;;;;;;;;3.50;3.50;;;;;3.80;82.76;100500.44;5015846;28;45401;-76
2022/04/09 05:12:34;;;;;;;;;2.50;1.00;;;;;3.81;83.17;100496.09;5015594;28;45590;-76
2022/04/09 05:14:59;;;;;;;;;8.50;5.50;;;;;3.82;82.92;100497.84;5015909;28;45457;-75
2022/04/09 05:17:24;;;;;;;;;3.50;3.50;;;;;3.83;83.12;100504.84;5016166;28;45404;-75
2022/04/09 05:19:50;;;;;;;;;4.50;3.00;;;;;3.83;82.82;100495.25;5015014;28;45353;-75
2022/04/09 05:22:15;;;;;;;;;3.50;3.00;;;;;3.83;82.67;100499.59;5015053;28;46157;-76
2022/04/09 05:24:41;;;;;;;;;3.75;3.75;;;;;3.87;83.36;100509.19;5015619;28;45550;-75
2022/04/09 05:27:06;;;;;;;;;5.00;5.00;;;;;3.85;83.23;100501.34;5016127;28;45502;-76
2022/04/09 05:29:31;;;;;;;;;9.00;6.00;;;;;3.85;82.96;100498.72;5017010;28;45396;-76
2022/04/09 05:31:57;;;;;;;;;5.00;5.00;;;;;3.86;83.80;100491.78;5015350;28;45459;-75
2022/04/09 05:34:22;;;;;;;;;3.00;3.00;;;;;3.89;82.93;100499.66;5030727;28;45408;-75
2022/04/09 05:36:47;;;;;;;;;4.25;3.50;;;;;3.88;82.16;100497.88;5016234;28;45427;-76
2022/04/09 05:39:15;;;;;;;;;6.00;4.00;;;;;3.91;82.53;100504.00;5016613;28;45381;-75
2022/04/09 05:41:41;;;;;;;;;4.00;4.00;;;;;3.95;83.32;100517.09;5015491;28;45459;-76
2022/04/09 05:44:06;;;;;;;;;5.50;4.50;;;;;3.95;83.56;100518.00;5015670;28;45437;-76
2022/04/09 05:46:32;;;;;;;;;3.50;3.25;;;;;3.99;83.05;100521.47;5015284;28;45449;-75
2022/04/09 05:48:57;;;;;;;;;2.50;2.50;;;;;4.00;83.47;100518.00;5015455;28;45431;-79
2022/04/09 05:51:24;;;;;;;;;6.00;6.00;;;;;3.97;83.35;100518.84;5015832;28;45467;-76
2022/04/09 05:53:49;;;;;;;;;4.00;4.00;;;;;4.04;84.15;100527.63;5014964;28;45400;-76
2022/04/09 05:56:14;;;;;;;;;5.50;5.50;;;;;4.03;83.26;100518.91;4996949;28;45467;-76
2022/04/09 05:58:42;;;;;;;;;5.00;4.00;;;;;4.09;83.70;100529.41;5015001;28;45472;-75
2022/04/09 06:01:07;;;;;;;;;7.00;3.25;;;;;4.12;83.82;100535.53;4997090;28;46740;-75
2022/04/09 06:03:32;;;;;;;;;3.75;3.75;;;;;4.13;83.74;100535.53;5014998;28;45381;-75
2022/04/09 06:05:58;;;;;;;;;7.25;4.50;;;;;4.13;83.75;100532.03;5016776;28;45307;-75
2022/04/09 06:08:23;;;;;;;;;6.00;6.00;;;;;4.15;83.59;100532.94;4997319;28;45494;-75
2022/04/09 06:10:49;;;;;;;;;6.25;6.00;;;;;4.17;83.23;100534.66;5014412;28;45329;-75
2022/04/09 06:13:15;;;;;;;;;9.75;9.25;;;;;4.22;83.47;100534.69;5014395;28;45262;-76
2022/04/09 06:15:41;;;;;;;;;6.00;6.00;;;;;4.28;84.16;100534.72;5014682;28;45424;-75
2022/04/09 06:18:08;;;;;;;;;3.00;3.00;;;;;4.34;83.99;100544.34;5014834;28;45369;-74
2022/04/09 06:20:34;;;;;;;;;6.75;6.00;;;;;4.38;83.77;100544.38;5014551;28;45421;-74
2022/04/09 06:22:59;;;;;;;;;6.25;6.25;;;;;4.47;83.55;100555.78;5014397;28;45514;-76
2022/04/09 06:25:26;;;;;;;;;9.75;6.50;;;;;4.50;83.29;100553.16;5014477;28;45387;-75
2022/04/09 06:27:51;;;;;;;;;5.25;4.50;;;;;4.56;82.65;100566.28;5015015;28;45391;-77
2022/04/09 06:30:16;;;;;;;;;3.75;3.50;;;;;4.55;83.14;100570.63;5014975;28;46259;-76
2022/04/09 06:32:42;;;;;;;;;10.50;7.25;;;;;4.60;83.49;100570.63;5013997;28;45337;-76
2022/04/09 06:35:08;;;;;;;;;6.00;5.00;;;;;4.64;82.99;100569.78;5015985;28;45513;-76
2022/04/09 06:37:36;;;;;;;;;8.50;6.00;;;;;4.70;83.12;100579.44;5016912;28;45369;-75
2022/04/09 06:40:02;;;;;;;;;6.50;4.00;;;;;4.70;82.62;100575.06;5014168;28;45469;-77
2022/04/09 06:42:28;;;;;;;;;11.50;6.25;;;;;4.79;82.56;100585.56;5014477;28;45946;-76
2022/04/09 06:44:53;;;;;;;;;7.00;7.00;;;;;4.83;82.36;100580.34;5014429;28;45477;-76
2022/04/09 06:47:18;;;;;;;;;5.50;3.00;;;;;4.91;82.66;100589.13;5014059;28;45453;-75
2022/04/09 06:49:44;;;;;;;;;6.75;6.00;;;;;4.92;82.94;100585.59;4996920;28;46170;-75
2022/04/09 06:52:09;;;;;;;;;6.25;4.00;;;;;4.95;82.80;100594.38;4995911;28;45408;-75
2022/04/09 06:54:34;;;;;;;;;6.00;4.00;;;;;4.97;82.87;100600.47;5014501;28;45383;-77
2022/04/09 06:57:00;;;;;;;;;5.50;5.50;;;;;4.98;82.31;100601.38;5014351;28;45443;-75
2022/04/09 06:59:25;;;;;;;;;7.00;3.00;;;;;5.00;82.33;100604.88;5013761;28;46222;-76
2022/04/09 07:01:50;;;;;;;;;7.50;3.50;;;;;5.00;81.95;100598.75;5013546;28;45449;-75
2022/04/09 07:04:16;;;;;;;;;2.50;1.00;;;;;5.04;82.85;100606.63;5014320;28;45405;-76
2022/04/09 07:06:44;;;;;;;;;3.00;3.00;;;;;5.06;81.99;100610.13;5013842;28;45741;-75
2022/04/09 07:09:09;;;;;;;;;3.75;2.00;;;;;5.07;82.03;100609.25;5015422;28;46530;-76
2022/04/09 07:11:35;;;;;;;;;2.75;2.75;;;;;5.09;81.73;100609.25;5015535;28;45487;-75
2022/04/09 07:14:00;;;;;;;;;5.00;5.00;;;;;5.08;81.84;100616.22;5014690;28;45480;-78
2022/04/09 07:16:26;;;;;;;;;3.25;3.25;;;;;5.09;82.64;100623.22;5014913;28;45326;-77
2022/04/09 07:18:51;;;;;;;;;7.50;4.50;;;;;5.11;82.26;100620.63;5017312;28;46150;-75
2022/04/09 07:21:16;;;;;;;;;3.00;3.00;;;;;5.14;82.62;100618.88;5017193;28;45567;-76
2022/04/09 07:23:42;;;;;;;;;1.00;1.00;;;;;5.23;82.33;100627.63;5017370;28;45382;-76
2022/04/09 07:26:07;;;;;;;;;2.25;1.00;;;;;5.26;81.86;100623.28;5017736;28;45468;-76
2022/04/09 07:28:33;;;;;;;;;3.00;3.00;;;;;5.36;81.31;100618.03;5017345;28;46196;-75
2022/04/09 07:30:58;;;;;;;;;3.00;3.00;;;;;5.49;81.40;100625.06;5017768;28;45461;-76
2022/04/09 07:33:23;;;;;;;;;4.00;4.00;;;;;5.58;81.37;100624.22;5018601;28;45722;-75
2022/04/09 07:35:49;;;;;;;;;5.50;5.50;;;;;5.70;80.91;100630.34;5020281;28;45626;-75
2022/04/09 07:38:15;;;;;;;;;3.00;3.00;;;;;5.82;80.15;100634.72;5018795;28;45421;-75
2022/04/09 07:40:40;;;;;;;;;4.00;0.75;;;;;5.97;79.24;100628.63;5017445;28;45527;-76
2022/04/09 07:43:05;;;;;;;;;2.50;2.50;;;;;6.25;79.56;100623.34;5000282;28;45610;-76
2022/04/09 07:45:31;;;;;;;;;3.25;1.00;;;;;6.44;78.72;100629.47;5016790;28;45381;-77
2022/04/09 07:47:59;;;;;;;;;3.50;3.50;;;;;6.64;76.56;100621.53;5017069;28;45994;-76
2022/04/09 07:50:25;;;;;;;;;6.25;3.00;;;;;6.80;75.75;100638.09;5000440;28;45420;-79
2022/04/09 07:52:51;;;;;;;;;3.00;3.00;;;;;6.85;75.22;100636.34;5017321;28;45394;-79
2022/04/09 07:55:18;;;;;;;;;3.00;3.00;;;;;6.84;75.08;100639.84;5017183;28;45463;-81
2022/04/09 07:57:45;;;;;;;;;4.00;2.50;;;;;6.82;74.56;100652.13;5018029;28;45451;-80
2022/04/09 08:00:11;;;;;;;;;3.00;3.00;;;;;6.86;74.54;100647.72;5017751;28;45387;-80
2022/04/09 08:02:37;;;;;;;;;9.75;3.00;;;;;6.83;73.69;100653.00;5018588;28;45436;-80
2022/04/09 08:05:03;;;;;;;;;2.00;2.00;;;;;6.78;74.23;100642.50;5017589;28;45369;-80
2022/04/09 08:07:28;;;;;;;;;7.00;3.00;;;;;6.78;74.39;100650.38;5019539;28;45388;-80
2022/04/09 08:09:53;;;;;;;;;3.50;3.25;;;;;6.85;74.03;100651.25;5004882;28;47490;-80
2022/04/09 08:12:19;;;;;;;;;3.75;3.75;;;;;6.85;72.88;100651.25;5020217;28;45360;-79
2022/04/09 08:14:45;;;;;;;;;4.00;4.00;;;;;6.93;74.13;100654.72;5018240;28;45436;-77
2022/04/09 08:17:10;;;;;;;;;3.75;3.75;;;;;6.98;72.59;100649.44;5017103;28;45488;-76
2022/04/09 08:19:36;;;;;;;;;1.00;1.00;;;;;7.01;71.41;100658.16;5017140;28;45398;-76
2022/04/09 08:22:02;;;;;;;;;4.00;3.25;;;;;7.07;71.34;100658.13;5016157;28;45384;-76
2022/04/09 08:24:28;;;;;;;;;1.00;1.00;;;;;7.08;71.69;100653.78;5016800;28;45575;-76
2022/04/09 08:26:54;;;;;;;;;3.00;3.00;;;;;7.05;71.13;100669.56;5016242;28;45460;-77
2022/04/09 08:29:20;;;;;;;;;8.25;3.00;;;;;6.98;70.98;100665.19;5016375;28;45400;-76
2022/04/09 08:31:47;;;;;;;;;3.50;1.50;;;;;6.95;70.94;100679.22;5017396;28;45534;-76
2022/04/09 08:34:14;;;;;;;;;2.00;2.00;;;;;6.89;70.68;100672.25;5016908;28;45380;-76
2022/04/09 08:36:40;;;;;;;;;3.00;0.50;;;;;6.96;70.72;100682.75;5016633;28;46438;-76
2022/04/09 08:39:06;;;;;;;;;3.75;2.50;;;;;6.96;71.02;100682.75;5018672;28;45722;-75
2022/04/09 08:41:31;;;;;;;;;4.00;4.00;;;;;6.97;71.89;100687.09;5016624;28;45477;-75
2022/04/09 08:43:56;;;;;;;;;2.75;2.50;;;;;6.98;71.41;100689.72;5016216;28;45567;-76
2022/04/09 08:46:25;;;;;;;;;2.00;1.00;;;;;6.94;69.52;100688.00;5017812;28;46045;-80
2022/04/09 08:48:51;;;;;;;;;1.00;1.00;;;;;6.98;69.98;100704.63;5017852;28;45559;-79
2022/04/09 08:51:17;;;;;;;;;3.75;3.75;;;;;6.93;70.80;100694.13;5017923;28;45464;-76
2022/04/09 08:53:44;;;;;;;;;5.50;3.25;;;;;6.93;70.20;100704.63;5015770;28;45539;-75
2022/04/09 08:56:11;;;;;;;;;6.75;4.00;;;;;6.91;70.70;100699.38;5015998;28;46841;-74
2022/04/09 08:58:36;;;;;;;;;5.00;5.00;;;;;6.87;71.28;100702.03;5015714;28;45560;-76
2022/04/09 09:01:02;;;;;;;;;6.00;6.00;;;;;6.85;71.10;100709.06;5016280;28;45412;-76
2022/04/09 09:03:27;;;;;;;;;4.50;1.50;;;;;6.81;71.94;100717.81;5016092;28;45522;-76
2022/04/09 09:05:52;;;;;;;;;1.00;1.00;;;;;6.78;70.81;100717.81;5015572;28;45407;-76
2022/04/09 09:08:38;;;;;;;;;2.00;1.00;;;;;6.72;70.17;100727.44;5031875;28;45479;-75
2022/04/09 09:11:03;;;;;;;;;0.75;0.75;;;;;6.74;70.77;100724.81;5017240;28;45498;-75
2022/04/09 09:13:28;;;;;;;;;0.25;0.00;;;;;6.76;70.07;100723.09;5016125;28;45476;-76
2022/04/09 09:15:55;;;;;;;;;3.00;2.50;;;;;6.79;69.30;100730.06;5015465;28;45450;-76
2022/04/09 09:18:32;;;;;;;;;3.00;3.00;;;;;6.84;70.37;100717.81;5016075;28;45401;-75
2022/04/09 09:20:59;;;;;;;;;5.25;3.00;;;;;6.87;70.32;100715.16;5016404;28;45604;-76
2022/04/09 09:23:26;;;;;;;;;5.50;3.00;;;;;6.92;69.58;100724.81;4998766;28;45373;-76
2022/04/09 09:25:54;;;;;;;;;5.00;3.00;;;;;7.00;68.57;100732.66;5015513;28;46703;-76
2022/04/09 09:28:31;;;;;;;;;4.00;3.00;;;;;7.08;68.45;100741.38;5016011;28;45503;-76
2022/04/09 09:30:58;;;;;;;;;3.25;3.25;;;;;7.19;67.97;100745.75;5015380;28;45313;-76
2022/04/09 09:33:24;;;;;;;;;3.25;3.25;;;;;7.27;67.80;100750.09;5031276;28;45363;-76
2022/04/09 09:35:50;;;;;;;;;3.25;1.00;;;;;7.40;67.27;100752.69;5015263;28;45657;-76
2022/04/09 09:38:22;;;;;;;;;1.50;1.50;;;;;7.59;66.42;100756.97;5016883;28;45592;-76
2022/04/09 09:40:48;;;;;;;;;1.50;1.00;;;;;7.83;66.52;100749.81;5018499;28;45522;-77
2022/04/09 09:43:19;;;;;;;;;4.00;4.00;;;;;8.14;65.34;100762.81;5018179;28;45521;-76
2022/04/09 09:45:45;;;;;;;;;6.00;1.50;;;;;8.58;64.35;100760.72;5015683;28;46327;-76
2022/04/09 09:48:22;;;;;;;;;3.00;3.00;;;;;9.03;62.07;100764.69;5015314;28;45341;-75
2022/04/09 09:50:49;;;;;;;;;1.00;1.00;;;;;9.17;60.69;100766.28;5015499;28;45495;-76
2022/04/09 09:53:15;;;;;;;;;3.00;0.25;;;;;9.20;60.92;100766.25;5014759;28;45555;-76
2022/04/09 09:55:42;;;;;;;;;1.00;1.00;;;;;9.15;61.26;100770.72;5014664;28;45439;-77
2022/04/09 09:58:10;;;;;;;;;2.25;2.00;;;;;9.16;60.86;100769.84;5014715;28;45458;-76
2022/04/09 10:00:37;;;;;;;;;6.25;6.25;;;;;9.13;60.30;100780.41;5014805;28;45437;-77
2022/04/09 10:03:05;;;;;;;;;6.25;3.25;;;;;8.98;60.68;100797.25;5015439;28;45340;-76
2022/04/09 10:05:30;;;;;;;;;3.00;3.00;;;;;8.75;60.60;100802.75;4997417;28;46571;-77
2022/04/09 10:07:56;;;;;;;;;3.00;3.00;;;;;8.59;62.06;100807.25;4997328;28;45428;-77
2022/04/09 10:10:26;;;;;;;;;4.50;3.00;;;;;8.49;61.81;100812.59;5016210;28;45611;-77
2022/04/09 10:12:55;;;;;;;;;1.00;1.00;;;;;8.40;62.32;100812.66;5014904;28;45483;-75
2022/04/09 10:15:24;;;;;;;;;8.50;5.50;;;;;8.48;62.49;100823.16;5014744;28;46252;-76
2022/04/09 10:17:52;;;;;;;;;6.50;4.00;;;;;8.45;61.75;100821.41;5014288;28;45439;-76
2022/04/09 10:20:19;;;;;;;;;3.00;3.00;;;;;8.49;61.80;100820.50;5014979;28;45344;-76
2022/04/09 10:22:46;;;;;;;;;6.00;6.00;;;;;8.61;62.20;100822.19;5013806;28;45370;-76
2022/04/09 10:25:14;;;;;;;;;6.50;5.50;;;;;8.73;62.58;100818.59;5014116;28;46036;-76
2022/04/09 10:27:43;;;;;;;;;1.00;1.00;;;;;8.87;61.50;100819.31;5014552;28;45513;-76
2022/04/09 10:30:11;;;;;;;;;6.75;6.00;;;;;9.06;61.14;100822.66;5015014;28;45463;-76
2022/04/09 10:32:52;;;;;;;;;6.00;3.75;;;;;9.14;60.21;100822.59;5014828;28;45539;-76
2022/04/09 10:35:30;;;;;;;;;3.75;3.00;;;;;9.11;59.97;100827.91;4997274;28;46947;-75
2022/04/09 10:38:07;;;;;;;;;3.00;3.00;;;;;9.07;60.41;100829.66;5017143;28;45284;-75
2022/04/09 10:40:33;;;;;;;;;5.00;5.00;;;;;9.10;60.69;100831.41;5030060;28;45422;-77
2022/04/09 10:43:01;;;;;;;;;3.75;3.75;;;;;8.94;60.68;100833.31;5014175;28;45490;-77
2022/04/09 10:45:28;;;;;;;;;3.50;3.00;;;;;8.91;61.29;100829.84;5014448;28;45951;-77
2022/04/09 10:48:10;;;;;;;;;3.00;3.00;;;;;8.83;61.30;100835.19;5013837;28;45372;-80
2022/04/09 10:50:54;;;;;;;;;6.75;3.75;;;;;8.78;61.63;100848.41;5013432;28;45408;-81
2022/04/09 10:53:28;;;;;;;;;7.25;5.50;;;;;8.65;61.97;100849.38;4996071;28;45478;-82
2022/04/09 10:56:30;;;;;;;;;4.00;2.50;;;;;8.52;62.40;100857.38;5015087;28;46647;-81
2022/04/09 10:59:02;;;;;;;;;1.00;1.00;;;;;8.45;61.45;100855.66;5016314;28;45507;-80
2022/04/09 11:01:48;;;;;;;;;6.00;3.25;;;;;8.46;62.09;100851.28;5015588;28;45335;-80
2022/04/09 11:04:32;;;;;;;;;3.50;3.50;;;;;8.43;62.53;100849.50;5014636;28;45467;-80
2022/04/09 11:07:18;;;;;;;;;4.00;3.00;;;;;8.47;62.20;100863.56;5020844;28;46220;-80
2022/04/09 11:09:43;;;;;;;;;4.00;2.00;;;;;8.45;62.51;100857.44;4998603;28;45511;-80
2022/04/09 11:12:09;;;;;;;;;7.25;7.25;;;;;8.50;62.24;100864.44;5017210;28;45514;-80
2022/04/09 11:14:49;;;;;;;;;3.25;3.25;;;;;8.49;63.44;100861.81;5019123;28;45409;-80
2022/04/09 11:17:43;;;;;;;;;7.75;4.00;;;;;8.46;62.49;100873.22;5015300;28;46075;-81
2022/04/09 11:20:10;;;;;;;;;7.00;4.00;;;;;8.48;62.21;100868.81;5016070;28;45430;-80
2022/04/09 11:22:41;;;;;;;;;6.75;4.50;;;;;8.52;62.62;100869.69;5030735;28;45478;-80
2022/04/09 11:25:19;;;;;;;;;6.00;6.00;;;;;8.49;62.89;100872.34;5014986;28;45389;-80
2022/04/09 11:27:44;;;;;;;;;3.25;3.25;;;;;8.50;63.58;100876.69;5014466;28;46139;-79
2022/04/09 11:30:10;;;;;;;;;10.00;5.50;;;;;8.46;62.37;100872.34;5013997;28;45399;-75
2022/04/09 11:32:36;;;;;;;;;6.25;4.50;;;;;8.38;62.13;100874.13;5013348;28;45445;-76